Terminal Aerodrome Forecast
Issued by NWS

Home | Current Version | Previous Version | Text Only | Print | Product List | Glossary On
Versions: 1 2 3 4 5 6 7 8 9 10 11 12 13 14 15 16 17 18 19 20 21 22 23
000
FTUS43 KOAX 010453 AAA
TAFBFF
TAF AMD
KBFF 010453Z 0105/0124 01011KT P6SM BKN015
     FM010600 35009KT 3SM -SHSN BR SCT009 OVC015
     FM011100 32015G24KT P6SM SCT020 OVC040=

USA.gov is the U.S. government's official web portal to all federal, state and local government web resources and services.